の過去48時間の天気

Trondheim / Vaernes

現在時刻: 9/17 13:21 CEST (9/17 11:21 UTC) 以下の時間は現地時間です。

過去48時間のMETAR気象情報
時間 風向 風速(m/s) 視程 気温(℃) 湿度(%) 気圧(hPa) 天気現象
17 12:50 西南西 6 10km以上 8 81 1005 弱い雨 霧雨
17 12:20 西南西 7 10km以上 8 81 1004 弱い雨 霧雨
17 11:50 西南西 7 10km以上 7 87 1004 弱い雨 霧雨
17 11:20 西南西 7 10km以上 7 81 1004 弱い雨 弱い霧雨
17 10:50 西南西 8 10km以上 7 81 1004 弱い霧雨
17 10:20 西南西 7 10km以上 7 81 1003 弱い霧雨
17 09:50 西南西 7 10km以上 7 81 1003 弱いしゅう雨
17 09:20 西南西 6 10km以上 7 81 1003 弱い雨 弱い霧雨
17 08:50 西南西 6 10km以上 7 81 1003 弱い雨
17 08:20 西南西 5 10km以上 7 81 1002 弱い雨
17 07:50 西南西 6 10km以上 7 76 1002 弱い霧雨
17 07:20 西南西 5 10km以上 7 76 1002
17 06:50 西南西 6 10km以上 7 76 1002
17 06:20 西南西 6 10km以上 7 76 1002
17 05:50 西南西 6 10km以上 7 76 1002
17 05:20 西南西 6 10km以上 7 76 1001
17 04:50 西南西 7 10km以上 7 76 1001
17 03:50 西南西 6 10km以上 7 76 1001
17 02:50 西南西 7 10km以上 7 76 1001
17 01:50 西南西 7 10km以上 7 81 1001
17 00:50 西南西 7 10km以上 8 76 1001
16 23:50 西南西 8 10km以上 8 76 1002 弱い霧雨
16 23:20 西南西 6 10km以上 8 76 1002
16 22:50 南西 5 10km以上 8 81 1001 弱い霧雨
16 22:20 西南西 6 10km以上 8 81 1002 弱い霧雨
16 21:50 西南西 4 10km以上 8 81 1002 弱い霧雨
16 21:20 西南西 5 10km以上 8 87 1002 弱い雨
16 20:50 西南西 6 10km以上 8 87 1002 弱い雨
16 20:20 西南西 5 10km以上 9 81 1002 周辺でしゅう雨
16 19:50 西南西 5 10km以上 8 87 1002 周辺でしゅう雨
16 19:20 西南西 5 10km以上 9 81 1002 周辺でしゅう雨
16 18:50 西 6 10km以上 8 87 1003 弱いしゅう雨
16 18:20 南西 8 10km以上 9 76 1003 弱いしゅう雨
16 17:50 西 9 10km以上 10 66 1002 周辺でしゅう雨
16 17:20 西 9 10km以上 11 62 1003 周辺でしゅう雨
16 16:50 西 9 10km以上 12 62 1003 周辺でしゅう雨
16 16:20 西 11 10km以上 11 58 1003
16 15:50 西 5 10km以上 10 76 1003
16 15:20 西南西 7 10km以上 10 76 1003 周辺でしゅう雨
16 14:50 西 12 10km以上 10 71 1003 弱いしゅう雨
16 14:20 西 12 10km以上 10 71 1003
16 13:50 西 10 10km以上 10 71 1003
16 13:20 西 11 10km以上 10 82 1003 周辺でしゅう雨
16 12:50 西 12 10km以上 10 76 1003 周辺でしゅう雨
16 12:20 西 12 10km以上 9 81 1002 周辺でしゅう雨
16 11:50 西 12 8000m 9 81 1002 弱い雨
16 11:20 西 12 10km以上 9 81 1001 弱い雨
16 10:50 西 12 10km以上 9 87 1001 周辺でしゅう雨
16 10:20 西 13 10km以上 10 82 1001 周辺でしゅう雨
16 09:50 西 13 5000m 9 93 1000 弱い雨
16 09:20 西 14 5000m 10 82 1000
16 08:50 西 15 10km以上 10 82 999 弱い雨 弱い霧雨
16 08:20 西 14 3700m 9 93 998 強い雨 強い霧雨
16 07:50 西南西 8 4800m 9 93 998
16 07:20 西南西 10 6000m 9 93 998 雨 霧雨
16 06:50 南西 9 5000m 9 93 998
16 06:20 南西 10 7000m 9 87 998 弱い雨 弱い霧雨
16 05:50 南西 11 10km以上 9 87 997 周辺でしゅう雨
16 05:20 南西 11 10km以上 10 82 997 周辺でしゅう雨
16 04:50 南西 11 10km以上 10 87 996
16 03:50 西 11 10km以上 10 94 996 しゅう雨
16 02:50 西 11 10km以上 11 87 995
16 01:50 西 13 10km以上 11 87 994
16 00:50 西 12 10km以上 11 82 993 弱い雨
16 00:20 西 10 10km以上 11 82 993 弱い雨
15 23:50 西 11 10km以上 11 82 993
15 23:20 西 12 10km以上 11 82 992 周辺でしゅう雨
15 22:50 西 13 10km以上 11 87 992
15 22:20 西 14 7000m 11 87 991 しゅう雨
15 21:50 西 11 5000m 10 94 991 しゅう雨
15 21:20 西 12 4500m 10 94 990
15 20:50 西南西 8 10km以上 10 87 990
15 20:20 西南西 8 10km以上 11 82 989 周辺でしゅう雨
15 19:50 西南西 9 10km以上 11 82 988 周辺でしゅう雨
15 19:20 西南西 9 10km以上 10 87 988 周辺でしゅう雨
15 18:50 南西 9 6000m 9 87 988
15 18:20 7 8000m 9 81 988
15 17:50 南南西 7 10km以上 9 87 988
15 17:20 南南西 8 10km以上 11 76 988
15 16:50 3 10km以上 12 71 988 周辺でしゅう雨
15 16:20 不定 1 10km以上 12 77 987 弱い霧雨
15 15:50 不定 2 10km以上 12 82 987 周辺でしゅう雨
15 15:20 静穏 0 10km以上 11 87 987 弱い雨
15 14:50 不定 1 10km以上 11 87 987 弱い雨
15 14:20 不定 2 10km以上 11 82 987 周辺でしゅう雨
15 13:50 4 10km以上 11 82 987 周辺でしゅう雨
ENVA 171050Z 24012KT 9999 8000E -RADZ FEW017 SCT026 BKN037 08/05 Q1005 TEMPO 4000 SHRA BKN014CB RMK WIND 670FT 24014KT
ENVA 171020Z 24013KT 9999 8000E -RADZ FEW017 SCT026 BKN037 08/05 Q1004 TEMPO 4000 SHRA BKN014CB RMK WIND 670FT 25015KT
ENVA 170950Z 24013KT 9999 8000E -RADZ FEW017 SCT026 OVC037 07/05 Q1004 TEMPO 4000 SHRA BKN014CB RMK WIND 670FT 25016G28KT
ENVA 170920Z 24013KT 9999 -RADZ FEW016 SCT024 BKN034 07/04 Q1004 NOSIG RMK WIND 670FT 25016G27KT
ENVA 170850Z 24015KT 9999 -DZ FEW017 BKN023 07/04 Q1004 NOSIG RMK WIND 670FT 25017KT
ENVA 170820Z 24013KT 9999 -DZ FEW017 BKN021 07/04 Q1003 NOSIG RMK WIND 670FT 25017KT
ENVA 170750Z 24013KT 9999 -SHRA FEW017 BKN023 07/04 Q1003 NOSIG RMK WIND 670FT 25016KT
ENVA 170720Z 24011KT 9999 -RADZ FEW017 BKN023 OVC030 07/04 Q1003 NOSIG RMK WIND 670FT 25015KT
ENVA 170650Z 24012KT 9999 -RA SCT018 BKN028 OVC042 07/04 Q1003 NOSIG RMK WIND 670FT 25015KT
ENVA 170620Z 24010KT 9999 -RA SCT017 BKN022 07/04 Q1002 NOSIG RMK WIND 670FT 25015KT
ENVA 170550Z 24011KT 9999 -DZ FEW017 BKN023 07/03 Q1002 NOSIG RMK WIND 670FT 25012KT
ENVA 170520Z 24010KT 9999 FEW018 SCT023 BKN035 07/03 Q1002 NOSIG RMK WIND 670FT 25012KT
ENVA 170450Z 24012KT 9999 SCT023 BKN035 07/03 Q1002 NOSIG RMK WIND 670FT 25014KT
ENVA 170420Z 24012KT 9999 BKN023 07/03 Q1002 RMK WIND 670FT 25015KT
ENVA 170350Z 24011KT 9999 BKN023 07/03 Q1002 RMK WIND 670FT 25013KT
ENVA 170320Z 24012KT 9999 BKN024 07/03 Q1001 RMK WIND 670FT 25012KT
ENVA 170250Z 24013KT 9999 SCT024 BKN034 07/03 Q1001 RMK WIND 670FT 25013KT
ENVA 170150Z 24012KT 9999 SCT031 BKN038 07/03 Q1001 RMK WIND 670FT 25014KT
ENVA 170050Z 24013KT 9999 FEW027 BKN040 07/03 Q1001 RMK WIND 670FT 24017KT
ENVA 162350Z 24014KT 9999 FEW027 BKN037 07/04 Q1001 RMK WIND 670FT 25016KT
ENVA 162250Z 24014KT 9999 FEW023 BKN033 08/04 Q1001 RMK WIND 670FT 24014KT
ENVA 162150Z 24015KT 9999 -DZ FEW019 BKN023 08/04 Q1002 RMK WIND 670FT 24015KT
ENVA 162120Z 24012KT 9999 SCT026 BKN033 08/04 Q1002 RMK WIND 670FT 25015KT
ENVA 162050Z 23010KT 9999 -DZ SCT029 BKN036 08/05 Q1001 RMK WIND 670FT 24016KT
ENVA 162020Z 24011KT 9999 -DZ SCT023CB BKN027 08/05 Q1002 RMK WIND 670FT 24015KT
ENVA 161950Z 24007KT 9999 -DZ FEW025 BKN030CB OVC040 08/05 Q1002 RMK WIND 670FT 24013KT
ENVA 161920Z 24009KT 9999 -RA FEW025 BKN030CB OVC040 08/06 Q1002 TEMPO 4000 SHRA RMK WIND 670FT 24011KT
ENVA 161850Z 25011KT 9999 -RA FEW025 BKN030CB OVC040 08/06 Q1002 TEMPO 4000 SHRA RMK WIND 670FT 24012KT
ENVA 161820Z 24010KT 9999 VCSH FEW020 SCT032CB BKN047 09/06 Q1002 TEMPO 27020KT 4000 SHRA BKN018CB RMK WIND 670FT 25013KT
ENVA 161750Z 24009KT 9999 VCSH FEW019 SCT036CB BKN044 08/06 Q1002 TEMPO 27019KT 4000 SHRA BKN018CB RMK WIND 670FT 25013KT
ENVA 161720Z 24009KT 9999 VCSH FEW015 SCT024 BKN036CB 09/06 Q1002 TEMPO 27019KT 4000 SHRA BKN018CB RMK WIND 670FT 25012KT
ENVA 161650Z 26012KT 230V290 9999 -SHRA FEW018 OVC030CB 08/06 Q1003 TEMPO 4000 SHRA BKN018CB RMK WIND 670FT 26016KT
ENVA 161620Z 23015KT 9999 -SHRA FEW018 OVC030CB 09/05 Q1003 TEMPO 4000 SHRA BKN018CB RMK WIND 670FT 24017KT
ENVA 161550Z 27017KT 9999 VCSH FEW035CB BKN047 10/04 Q1002 TEMPO 4000 SHRA BKN018CB RMK WIND 670FT 27013KT
ENVA 161520Z 28017KT 9999 VCSH SCT039CB BKN051 11/04 Q1003 TEMPO 28020G30KT SHRA SCT014CB BKN025 RMK WIND 670FT 28016KT
ENVA 161450Z 27017KT 9999 VCSH SCT040 12/05 Q1003 NOSIG RMK WIND 670FT 28017KT
ENVA 161420Z 27021KT 9999 FEW035 BKN050 11/03 Q1003 TEMPO 4000 SHRA SCT012CB BKN020 RMK WIND 670FT 28019KT
ENVA 161350Z 26010KT 9999 SCT040 BKN060 10/06 Q1003 TEMPO 4000 SHRA SCT012CB BKN020 RMK WIND 670FT 27009KT
ENVA 161320Z 25013KT 220V290 9999 VCSH FEW024 SCT038CB BKN045 10/06 Q1003 TEMPO 4000 SHRA BKN014CB RMK WIND 670FT 26012KT
ENVA 161250Z 27023KT 9999 -SHRA FEW035CB SCT043 BKN064 10/05 Q1003 TEMPO 4000 SHRA BKN014CB RMK WIND 670FT 28021KT
ENVA 161220Z 26024KT 9999 FEW030CB BKN039 10/05 Q1003 TEMPO 4000 SHRA BKN014CB RMK WIND 670FT 27022G33KT
ENVA 161150Z 27020KT 9999 FEW026CB BKN038 10/05 Q1003 TEMPO 4000 SHRA BKN014CB RMK WIND 670FT 28017G32KT
ENVA 161120Z 26021KT 9999 VCSH SCT027 BKN035 10/07 Q1003 TEMPO 4000 SHRA BKN014CB RMK WIND 670FT 27020G32KT
ENVA 161050Z 26024KT 9999 VCSH SCT018CB BKN027 10/06 Q1003 TEMPO 4000 SHRA BKN014CB RMK WIND 670FT 27020G32KT
ENVA 161020Z 26023KT 9999 7000E VCSH SCT019CB BKN037 09/06 Q1002 TEMPO 4000 SHRA BKN014CB RMK WIND 670FT 27026G41KT
ENVA 160950Z 26024KT 8000 -RA SCT016CB BKN028 09/06 Q1002 TEMPO 4000 SHRA BKN014CB RMK WIND 670FT 27023G35KT
ENVA 160920Z 26023KT 9999 -RA FEW015 BKN024 09/06 Q1001 TEMPO 3000 SHRA BKN008 SCT014CB RMK WIND 670FT 27024G39KT
ENVA 160850Z 26023KT 9999 VCSH FEW015 BKN020CB 09/07 Q1001 TEMPO 3000 SHRA BKN008 SCT014CB RMK WIND 670FT 27022G34KT
ENVA 160820Z 27025KT 9999 VCSH SCT015CB BKN020 10/07 Q1001 TEMPO 3000 SHRA BKN008 SCT014CB RMK WIND 670FT 27023G35KT
ENVA 160750Z 28025KT 5000 -RA FEW002 SCT015CB BKN025 09/08 Q1000 TEMPO 3000 SHRA BKN008 SCT014CB RMK WIND 670FT 28022G34KT
ENVA 160720Z 27028KT 5000 RA SCT016CB BKN029 10/07 Q1000 TEMPO 3000 SHRA BKN008 SCT014CB RMK WIND 670FT 28029G45KT
ENVA 160650Z 27030KT 9999 -RADZ SCT015CB BKN037 OVC044 10/07 Q0999 TEMPO 4000 SHRA BKN008 SCT014CB RMK WIND 670FT 28030G43KT
ENVA 160620Z 26027KT 3700 +RADZ SCT002 BKN015CB BKN023 09/08 Q0998 TEMPO SCT002 BKN008 BKN014CB RMK WIND 670FT 27023G39KT
ENVA 160550Z 25015KT 4800 RA FEW002 BKN012CB BKN027 09/08 Q0998 TEMPO 27025G35KT 3000 SHRA BKN008 BKN012CB RMK WIND 670FT 26020G32KT
ENVA 160520Z 25020KT 6000 RADZ SCT002 BKN009CB BKN011 09/08 Q0998 TEMPO 27025G35KT 3000 SHRA RMK WIND 670FT 26023G33KT
ENVA 160450Z 23018KT 5000 RA FEW010CB SCT013 BKN020 09/08 Q0998 TEMPO 27025G35KT 4000 SHRA SCT008 BKN014CB RMK WIND 670FT 25019KT
ENVA 160420Z 23020KT 7000 -RADZ FEW002 SCT009CB BKN020 09/07 Q0998 RMK WIND 670FT 24022G33KT
ENVA 160350Z 23022KT 9999 VCSH FEW003 BKN017 09/07 Q0997 RERA RMK WIND 670FT 25024G38KT
ENVA 160320Z 23022KT 9999 VCSH FEW002 SCT012 BKN015 10/07 Q0997 RERA RMK WIND 670FT 25023G33KT
ENVA 160250Z 23022KT 9999 SCT013 BKN016 10/08 Q0996 RESHRA RMK WIND 670FT 26024G36KT
ENVA 160150Z 27022KT 9999 SHRA SCT002 BKN018 10/09 Q0996 RMK WIND 670FT 28022G36KT
ENVA 160050Z 27021KT 9999 FEW010 BKN019 11/09 Q0995 RMK WIND 670FT 27022KT
ENVA 152350Z 28025KT 9999 FEW021 SCT027 BKN035 11/09 Q0994 RESHRA RMK WIND 670FT 28020G31KT
ENVA 152250Z 27024KT 9999 -RA BKN021 11/08 Q0993 RMK WIND 670FT 27020G31KT
ENVA 152220Z 26020KT 9999 -RA FEW012 BKN022 11/08 Q0993 RMK WIND 670FT 27021G33KT
ENVA 152150Z 26021KT 9999 FEW012 BKN019 11/08 Q0993 RMK WIND 670FT 27022KT
ENVA 152120Z 28024KT 9999 VCSH FEW007 SCT018 BKN025 11/08 Q0992 RERA RMK WIND 670FT 27019G35KT
ENVA 152050Z 28026KT 9999 FEW007 SCT018 BKN025 11/09 Q0992 RMK WIND 670FT 27022KT
ENVA 152020Z 27028KT 7000 SHRA FEW002 SCT016 BKN022 11/09 Q0991 RMK WIND 670FT 28026G39KT
ENVA 151950Z 28022KT 5000 SHRA FEW002 SCT010 BKN017CB 10/09 Q0991 RMK WIND 670FT 28022G35KT
ENVA 151920Z 26024KT 4500 RA FEW002 SCT010 BKN024 10/09 Q0990 RMK WIND 670FT 27025G36KT
ENVA 151850Z 24015KT 9999 RA FEW002 SCT019CB BKN030 10/08 Q0990 RMK WIND 670FT 25018KT
ENVA 151820Z 24015KT 9999 VCSH FEW002 SCT021CB BKN027 11/08 Q0989 RMK WIND 670FT 25018G31KT
ENVA 151750Z 25018KT 9999 VCSH FEW002 SCT021CB BKN027 11/08 Q0988 RMK WIND 670FT 26022G38KT
ENVA 151720Z 24017KT 9999 6000E VCSH FEW002 SCT021CB BKN027 10/08 Q0988 RMK WIND 670FT 24024G41KT
ENVA 151650Z 22018KT 6000 RA FEW032CB OVC032 09/07 Q0988 RMK WIND 670FT 23020G34KT
ENVA 151620Z 18014KT 8000 RA FEW042CB OVC042 09/06 Q0988 RMK WIND 670FT 20020KT
ENVA 151550Z 20014G28KT 9999 RA FEW008 BKN037CB OVC046 09/07 Q0988 RMK WIND 670FT 21018KT
ENVA 151520Z 21016KT 9999 RA FEW008 BKN037 OVC046 11/07 Q0988 RERA RMK WIND 670FT 22020G30KT
ENVA 151450Z VRB06KT 9999 VCSH FEW008 BKN037 OVC046 12/07 Q0988 REDZ RMK WIND 670FT 24012KT
ENVA 151420Z VRB02KT 9999 -DZ OVC043 12/08 Q0987 RMK WIND 670FT 28007KT
ENVA 151350Z VRB03KT 9999 VCSH OVC044 12/09 Q0987 BECMG 25015KT RMK WIND 670FT 27004KT
ENVA 151320Z 00000KT 9999 -RA FEW028 BKN055 11/09 Q0987 BECMG 25015KT RMK WIND 670FT 23010KT
ENVA 151250Z VRB02KT 9999 -RA FEW028 BKN055 11/09 Q0987 BECMG 25015KT RMK WIND 670FT 26012G23KT
ENVA 151220Z VRB03KT 9999 VCSH FEW028 BKN055 11/08 Q0987 BECMG 25015KT RMK WIND 670FT VRB03KT
ENVA 151150Z 10007KT 9999 VCSH FEW033 BKN055 11/08 Q0987 NOSIG RMK WIND 670FT VRB03KT